createdAt,value
2019-04-04T00:04:23.392Z,13.60
2019-04-04T00:14:28.682Z,16.10
2019-04-04T00:24:34.059Z,16.00
2019-04-04T00:34:39.411Z,16.80
2019-04-04T00:44:44.887Z,16.13
2019-04-04T00:54:50.219Z,15.05
2019-04-04T01:04:55.611Z,16.73
2019-04-04T01:15:01.004Z,15.67
2019-04-04T01:25:10.735Z,13.20
2019-04-04T01:35:16.145Z,15.45
2019-04-04T01:45:21.393Z,14.78
2019-04-04T01:55:26.638Z,14.43
2019-04-04T02:05:32.105Z,15.30
2019-04-04T02:15:37.479Z,14.93
2019-04-04T02:25:42.594Z,15.30
2019-04-04T02:35:48.026Z,15.90
2019-04-04T02:45:53.249Z,14.58
2019-04-04T02:56:02.308Z,16.03
2019-04-04T03:06:05.543Z,15.28
2019-04-04T03:16:10.761Z,15.60
2019-04-04T03:26:19.024Z,19.17
2019-04-04T03:36:22.739Z,20.27
2019-04-04T03:46:27.987Z,17.90
2019-04-04T03:56:38.965Z,15.63
2019-04-04T04:06:42.115Z,16.67
2019-04-04T04:16:47.092Z,18.23
2019-04-04T04:26:52.665Z,11.90
2019-04-04T04:36:57.990Z,15.67
2019-04-04T04:47:03.288Z,15.53
2019-04-04T04:57:08.882Z,14.83
2019-04-04T05:07:14.391Z,15.97
2019-04-04T05:17:19.895Z,14.35
2019-04-04T05:27:25.067Z,17.37
2019-04-04T05:37:30.723Z,13.60
2019-04-04T05:47:36.117Z,18.00
2019-04-04T05:57:41.693Z,16.50
2019-04-04T06:07:47.206Z,15.90
2019-04-04T06:17:52.562Z,15.57
2019-04-04T06:27:58.402Z,16.53
2019-04-04T06:38:03.965Z,18.53
2019-04-04T06:48:09.401Z,18.20
2019-04-04T06:58:17.007Z,17.00
2019-04-04T07:08:22.602Z,18.25
2019-04-04T07:18:27.851Z,16.43
2019-04-04T07:28:33.729Z,18.43
2019-04-04T07:38:39.136Z,16.53
2019-04-04T07:48:44.564Z,17.20
2019-04-04T07:58:50.285Z,16.55
2019-04-04T08:08:55.681Z,16.66
2019-04-04T08:19:01.402Z,7.58
2019-04-04T08:29:07.240Z,15.83
2019-04-04T08:39:13.520Z,16.93
2019-04-04T08:49:19.042Z,15.80
2019-04-04T08:59:24.841Z,15.28
2019-04-04T09:09:30.612Z,16.77
2019-04-04T09:19:36.443Z,14.45
2019-04-04T09:29:42.120Z,13.40
2019-04-04T09:39:47.763Z,16.02
2019-04-04T09:49:53.401Z,16.07
2019-04-04T09:59:59.082Z,15.50
2019-04-04T10:10:08.122Z,11.30
2019-04-04T10:20:14.004Z,11.53
2019-04-04T10:30:20.960Z,12.50
2019-04-04T10:40:26.643Z,12.45
2019-04-04T10:50:32.114Z,11.10
2019-04-04T11:00:38.783Z,12.20
2019-04-04T11:10:45.182Z,11.10
2019-04-04T11:20:50.486Z,10.70
2019-04-04T11:30:56.127Z,12.20
2019-04-04T11:41:01.711Z,13.35
2019-04-04T11:51:06.994Z,13.25
2019-04-04T12:01:16.047Z,10.95
2019-04-04T12:11:22.765Z,8.67
2019-04-04T12:21:28.646Z,11.20
2019-04-04T12:31:34.364Z,11.88
2019-04-04T12:41:40.067Z,11.53
2019-04-04T12:51:45.632Z,11.60
2019-04-04T13:01:51.108Z,13.13
2019-04-04T13:11:57.014Z,11.60
2019-04-04T13:22:02.326Z,12.03
2019-04-04T13:32:07.899Z,10.95
2019-04-04T13:42:13.448Z,20.43
2019-04-04T13:52:18.807Z,9.85
2019-04-04T14:02:24.266Z,11.05
2019-04-04T14:12:29.828Z,10.10
2019-04-04T14:22:35.534Z,10.85
2019-04-04T14:32:41.176Z,9.65
2019-04-04T14:42:46.587Z,11.55
2019-04-04T14:52:52.422Z,11.30
2019-04-04T15:02:57.942Z,10.80
2019-04-04T15:13:03.586Z,10.68
2019-04-04T15:23:09.305Z,10.48
2019-04-04T15:33:15.840Z,9.48
2019-04-04T15:43:21.204Z,11.75
2019-04-04T15:53:26.848Z,10.30
2019-04-04T16:03:32.769Z,11.15
2019-04-04T16:13:38.488Z,10.32
2019-04-04T16:23:43.908Z,11.15
2019-04-04T16:33:49.535Z,10.60
2019-04-04T16:43:55.280Z,11.80
2019-04-04T16:54:00.746Z,10.95
2019-04-04T17:04:06.426Z,17.12
2019-04-04T17:14:12.126Z,11.28
2019-04-04T17:24:17.848Z,12.28
2019-04-04T17:34:24.027Z,11.48
2019-04-04T17:44:29.835Z,11.73
2019-04-04T17:54:37.318Z,8.60
2019-04-04T18:04:48.525Z,12.20
2019-04-04T18:14:50.943Z,11.87
2019-04-04T18:24:56.592Z,12.47
2019-04-04T18:35:02.509Z,14.47
2019-04-04T18:45:08.726Z,14.40
2019-04-04T18:55:19.983Z,13.98
2019-04-04T19:05:22.103Z,13.50
2019-04-04T19:15:27.710Z,13.62
2019-04-04T19:25:33.587Z,14.50
2019-04-04T19:35:39.410Z,13.90
2019-04-04T19:45:45.205Z,13.53
2019-04-04T19:55:50.828Z,14.47
2019-04-04T20:05:56.746Z,15.60
2019-04-04T20:16:02.516Z,14.90
2019-04-04T20:26:08.295Z,14.33
2019-04-04T20:36:14.107Z,14.90
2019-04-04T20:46:19.887Z,15.47
2019-04-04T20:56:25.725Z,15.60
2019-04-04T21:06:31.397Z,15.60
2019-04-04T21:16:36.920Z,16.87
2019-04-04T21:26:42.366Z,17.87
2019-04-04T21:36:47.768Z,19.37
2019-04-04T21:46:53.318Z,18.13
2019-04-04T21:56:58.948Z,18.87
2019-04-04T22:07:04.466Z,18.67
2019-04-04T22:17:10.926Z,19.87
2019-04-04T22:27:16.310Z,18.57
2019-04-04T22:37:22.024Z,19.20
2019-04-04T22:47:27.290Z,19.10
2019-04-04T22:57:32.806Z,19.43
2019-04-04T23:07:38.055Z,20.70
2019-04-04T23:17:45.460Z,20.57
2019-04-04T23:27:50.866Z,20.53
2019-04-04T23:37:56.487Z,20.33
2019-04-04T23:48:01.976Z,17.17
2019-04-04T23:58:07.565Z,19.30
